createdAt,value
2023-05-09T00:00:03.832Z,17.05
2023-05-09T00:01:03.832Z,17.06
2023-05-09T00:02:03.905Z,17.06
2023-05-09T00:03:03.829Z,17.06
2023-05-09T00:04:03.789Z,17.06
2023-05-09T00:05:03.798Z,17.05
2023-05-09T00:06:03.812Z,17.06
2023-05-09T00:07:03.765Z,17.05
2023-05-09T00:08:03.766Z,17.06
2023-05-09T00:09:03.730Z,17.08
2023-05-09T00:10:03.743Z,17.09
2023-05-09T00:11:03.735Z,17.09
2023-05-09T00:12:03.695Z,17.08
2023-05-09T00:13:03.745Z,17.11
2023-05-09T00:14:03.688Z,17.09
2023-05-09T00:15:03.721Z,17.09
2023-05-09T00:16:03.739Z,17.11
2023-05-09T00:17:03.661Z,17.09
2023-05-09T00:18:03.661Z,17.08
2023-05-09T00:19:03.636Z,17.09
2023-05-09T00:20:03.620Z,17.09
2023-05-09T00:21:03.635Z,17.12
2023-05-09T00:22:03.581Z,17.11
2023-05-09T00:23:03.586Z,17.09
2023-05-09T00:24:03.554Z,17.09
2023-05-09T00:25:03.563Z,17.08
2023-05-09T00:26:03.541Z,17.11
2023-05-09T00:27:03.567Z,17.09
2023-05-09T00:28:03.522Z,17.11
2023-05-09T00:29:03.524Z,17.09
2023-05-09T00:30:03.507Z,17.06
2023-05-09T00:31:03.504Z,17.05
2023-05-09T00:32:03.513Z,17.04
2023-05-09T00:33:03.504Z,17.04
2023-05-09T00:34:03.460Z,17.06
2023-05-09T00:35:03.452Z,17.06
2023-05-09T00:36:03.458Z,17.05
2023-05-09T00:37:03.434Z,17.04
2023-05-09T00:38:03.424Z,17.05
2023-05-09T00:39:03.422Z,17.06
2023-05-09T00:40:03.400Z,17.05
2023-05-09T00:41:03.424Z,17.04
2023-05-09T00:42:03.375Z,17.05
2023-05-09T00:43:03.382Z,17.04
2023-05-09T00:44:03.344Z,17.05
2023-05-09T00:45:03.363Z,17.05
2023-05-09T00:46:03.382Z,17.04
2023-05-09T00:47:03.331Z,17.08
2023-05-09T00:48:03.379Z,17.06
2023-05-09T00:49:03.321Z,17.04
2023-05-09T00:50:03.298Z,17.02
2023-05-09T00:51:03.298Z,17.04
2023-05-09T00:52:03.264Z,17.02
2023-05-09T00:53:03.276Z,17.02
2023-05-09T00:54:03.260Z,17.01
2023-05-09T00:55:03.267Z,16.99
2023-05-09T00:56:03.238Z,17.01
2023-05-09T00:57:03.236Z,17.04
2023-05-09T00:58:03.205Z,16.99
2023-05-09T00:59:03.206Z,17.01
2023-05-09T01:00:03.190Z,16.97
2023-05-09T01:01:03.237Z,16.97
2023-05-09T01:02:03.166Z,17.01
2023-05-09T01:03:03.217Z,17.02
2023-05-09T01:04:03.143Z,17.02
2023-05-09T01:05:03.158Z,16.99
2023-05-09T01:06:03.122Z,17.01
2023-05-09T01:07:03.160Z,16.97
2023-05-09T01:08:03.135Z,17.01
2023-05-09T01:09:03.106Z,16.99
2023-05-09T01:10:03.068Z,16.99
2023-05-09T01:11:03.068Z,16.96
2023-05-09T01:12:03.053Z,16.97
2023-05-09T01:13:03.120Z,17.01
2023-05-09T01:14:03.038Z,16.99
2023-05-09T01:15:03.027Z,16.99
2023-05-09T01:16:03.029Z,16.97
2023-05-09T01:17:03.010Z,16.99
2023-05-09T01:18:03.038Z,16.97
2023-05-09T01:19:03.012Z,16.99
2023-05-09T01:20:02.968Z,16.97
2023-05-09T01:21:02.983Z,16.97
2023-05-09T01:22:02.949Z,17.01
2023-05-09T01:23:02.958Z,16.97
2023-05-09T01:24:02.934Z,16.97
2023-05-09T01:25:02.945Z,16.96
2023-05-09T01:26:02.899Z,16.97
2023-05-09T01:27:02.917Z,16.96
2023-05-09T01:28:02.894Z,16.94
2023-05-09T01:29:02.888Z,16.96
2023-05-09T01:30:02.895Z,16.93
2023-05-09T06:01:01.035Z,16.87
2023-05-09T06:02:01.971Z,16.90
2023-05-09T06:03:01.989Z,16.91
2023-05-09T06:04:01.958Z,16.93
2023-05-09T06:05:01.922Z,16.94
2023-05-09T06:06:01.956Z,16.97
2023-05-09T06:07:01.922Z,16.99
2023-05-09T06:08:01.923Z,17.05
2023-05-09T06:09:01.916Z,17.06
2023-05-09T06:10:01.863Z,17.08
2023-05-09T06:11:01.907Z,17.11
2023-05-09T06:12:01.879Z,17.14
2023-05-09T06:13:01.904Z,17.14
2023-05-09T06:14:01.854Z,17.19
2023-05-09T06:15:01.859Z,17.22
2023-05-09T06:16:15.080Z,17.23
2023-05-09T06:17:01.842Z,17.26
2023-05-09T06:18:01.811Z,17.26
2023-05-09T06:19:01.795Z,17.29
2023-05-09T06:20:01.781Z,17.30
2023-05-09T06:21:01.760Z,17.31
2023-05-09T06:22:01.735Z,17.31
2023-05-09T06:23:01.750Z,17.34
2023-05-09T06:24:07.701Z,17.36
2023-05-09T06:25:01.740Z,17.38
2023-05-09T06:26:01.688Z,17.39
2023-05-09T06:27:01.692Z,17.41
2023-05-09T06:28:01.668Z,17.42
2023-05-09T06:29:01.670Z,17.44
2023-05-09T06:30:08.260Z,17.45
2023-05-09T06:31:01.740Z,17.45
2023-05-09T06:32:01.642Z,17.45
2023-05-09T06:33:01.682Z,17.46
2023-05-09T06:34:01.611Z,17.46
2023-05-09T06:35:01.615Z,17.49
2023-05-09T06:36:01.625Z,17.46
2023-05-09T06:37:01.602Z,17.51
2023-05-09T06:38:01.576Z,17.51
2023-05-09T06:39:01.585Z,17.49
2023-05-09T06:40:01.562Z,17.48
2023-05-09T06:41:01.567Z,17.52
2023-05-09T06:42:01.601Z,17.52
2023-05-09T06:43:01.578Z,17.52
2023-05-09T06:44:01.497Z,17.52
2023-05-09T06:45:01.569Z,17.56
2023-05-09T06:46:01.506Z,17.54
2023-05-09T06:47:01.525Z,17.57
2023-05-09T06:48:01.507Z,17.59
2023-05-09T06:49:01.474Z,17.59
2023-05-09T06:50:01.442Z,17.59
2023-05-09T06:51:01.438Z,17.63
2023-05-09T06:52:01.423Z,17.63
2023-05-09T06:53:01.446Z,17.60
2023-05-09T06:54:01.421Z,17.64
2023-05-09T06:55:01.398Z,17.67
2023-05-09T06:56:01.368Z,17.67
2023-05-09T06:57:01.374Z,17.70
2023-05-09T06:58:01.337Z,17.70
2023-05-09T06:59:01.361Z,17.72
2023-05-09T07:00:01.366Z,17.76
2023-05-09T07:01:01.322Z,17.78
2023-05-09T07:02:01.366Z,17.79
2023-05-09T07:03:01.346Z,17.80
2023-05-09T07:04:01.281Z,17.82
2023-05-09T07:05:01.604Z,17.85
2023-05-09T07:06:01.418Z,17.85
2023-05-09T07:07:01.261Z,17.86
2023-05-09T07:08:01.268Z,17.89
2023-05-09T07:09:01.275Z,17.90
2023-05-09T07:10:10.347Z,17.95
2023-05-09T07:11:01.222Z,18.01
2023-05-09T07:12:01.230Z,18.04
2023-05-09T07:13:01.243Z,18.05
2023-05-09T07:14:01.217Z,18.10
2023-05-09T07:15:01.179Z,18.11
2023-05-09T07:16:01.235Z,18.15
2023-05-09T07:17:18.125Z,18.22
2023-05-09T07:18:01.189Z,18.22
2023-05-09T07:19:01.123Z,18.28
2023-05-09T07:20:01.147Z,18.31
2023-05-09T07:21:01.125Z,18.35
2023-05-09T07:22:01.151Z,18.38
2023-05-09T07:23:01.202Z,18.40
2023-05-09T07:24:01.054Z,18.44
2023-05-09T07:25:01.052Z,18.47
2023-05-09T07:26:01.110Z,18.49
2023-05-09T07:27:01.052Z,18.53
2023-05-09T07:28:01.038Z,18.56
2023-05-09T07:29:01.029Z,18.59
2023-05-09T07:30:01.010Z,18.60
2023-05-09T07:31:01.086Z,18.66
2023-05-09T07:32:01.040Z,18.71
2023-05-09T07:33:01.112Z,18.75
2023-05-09T07:34:00.959Z,18.81
2023-05-09T07:35:00.954Z,18.84
2023-05-09T07:36:00.956Z,18.89
2023-05-09T07:37:00.961Z,18.92
2023-05-09T07:38:00.927Z,18.95
2023-05-09T07:39:00.993Z,18.96
2023-05-09T07:40:00.898Z,18.98
2023-05-09T07:41:00.920Z,19.00
2023-05-09T07:42:00.884Z,19.07
2023-05-09T07:43:00.893Z,19.08
2023-05-09T07:44:00.878Z,19.08
2023-05-09T07:45:00.867Z,19.11
2023-05-09T07:46:00.903Z,19.16
2023-05-09T07:47:00.863Z,19.16
2023-05-09T07:48:00.856Z,19.19
2023-05-09T07:49:00.822Z,19.18
2023-05-09T07:50:00.797Z,19.21
2023-05-09T07:51:00.814Z,19.22
2023-05-09T07:52:00.810Z,19.22
2023-05-09T07:53:00.761Z,19.22
2023-05-09T07:54:00.731Z,19.26
2023-05-09T07:55:00.772Z,19.29
2023-05-09T07:56:00.819Z,19.29
2023-05-09T07:57:00.755Z,19.30
2023-05-09T07:58:00.696Z,19.31
2023-05-09T07:59:00.713Z,19.30
2023-05-09T08:00:00.716Z,19.30
2023-05-09T08:01:00.691Z,19.30
2023-05-09T08:02:00.687Z,19.30
2023-05-09T08:03:00.812Z,19.30
2023-05-09T08:04:00.734Z,19.31
2023-05-09T08:05:00.666Z,19.29
2023-05-09T08:06:01.010Z,19.27
2023-05-09T08:07:00.605Z,19.26
2023-05-09T08:08:00.618Z,19.26
2023-05-09T08:09:00.568Z,19.26
2023-05-09T08:10:00.572Z,19.24
2023-05-09T08:11:00.561Z,19.24
2023-05-09T08:12:00.577Z,19.24
2023-05-09T08:13:00.570Z,19.26
2023-05-09T08:14:00.566Z,19.26
2023-05-09T08:15:00.639Z,19.26
2023-05-09T08:16:00.561Z,19.26
2023-05-09T08:17:00.500Z,19.26
2023-05-09T08:18:00.575Z,19.29
2023-05-09T08:19:00.467Z,19.29
2023-05-09T08:20:00.479Z,19.27
2023-05-09T08:21:00.437Z,19.29
2023-05-09T08:22:00.443Z,19.26
2023-05-09T08:23:00.438Z,19.27
2023-05-09T08:24:00.418Z,19.30
2023-05-09T08:25:00.445Z,19.27
2023-05-09T08:26:00.482Z,19.29
2023-05-09T08:27:00.407Z,19.30
2023-05-09T08:28:00.378Z,19.29
2023-05-09T08:29:00.392Z,19.30
2023-05-09T08:30:00.354Z,19.31
2023-05-09T08:31:00.419Z,19.31
2023-05-09T08:32:00.372Z,19.31
2023-05-09T08:33:00.348Z,19.31
2023-05-09T08:34:00.316Z,19.30
2023-05-09T08:35:00.305Z,19.30
2023-05-09T08:36:00.335Z,19.29
2023-05-09T08:37:00.250Z,19.30
2023-05-09T08:38:00.314Z,19.29
2023-05-09T08:39:00.257Z,19.27
2023-05-09T08:40:00.267Z,19.29
2023-05-09T08:41:00.270Z,19.27
2023-05-09T08:42:00.339Z,19.30
2023-05-09T08:43:00.198Z,19.31
2023-05-09T08:44:00.227Z,19.31
2023-05-09T08:45:00.191Z,19.33
2023-05-09T08:46:00.524Z,19.34
2023-05-09T08:47:00.375Z,19.36
2023-05-09T08:48:00.289Z,19.37
2023-05-09T08:49:00.158Z,19.39
2023-05-09T08:50:00.151Z,19.40
2023-05-09T08:51:00.153Z,19.41
2023-05-09T08:52:00.235Z,19.44
2023-05-09T08:53:00.127Z,19.40
2023-05-09T08:54:00.150Z,19.40
2023-05-09T08:55:00.073Z,19.44
2023-05-09T08:56:00.114Z,19.47
2023-05-09T08:57:00.055Z,19.45
2023-05-09T08:58:00.066Z,19.48
2023-05-09T08:59:00.034Z,19.48
2023-05-09T09:00:00.042Z,19.54
2023-05-09T09:01:00.042Z,19.54
2023-05-09T09:02:00.110Z,19.56
2023-05-09T09:03:00.077Z,19.58
2023-05-09T09:04:00.027Z,19.58
2023-05-09T09:04:59.996Z,19.59
2023-05-09T09:05:59.999Z,19.63
2023-05-09T09:06:59.946Z,19.63
2023-05-09T09:07:59.952Z,19.64
2023-05-09T09:08:59.938Z,19.64
2023-05-09T09:09:59.916Z,19.66
2023-05-09T09:10:59.979Z,19.66
2023-05-09T09:11:59.975Z,19.69
2023-05-09T09:12:59.950Z,19.69
2023-05-09T09:13:59.878Z,19.70
2023-05-09T09:14:59.886Z,19.73
2023-05-09T09:16:00.095Z,19.74
2023-05-09T09:16:59.885Z,19.71
2023-05-09T09:18:00.200Z,19.77
2023-05-09T09:18:59.817Z,19.76
2023-05-09T09:19:59.828Z,19.79
2023-05-09T09:20:59.790Z,19.79
2023-05-09T09:21:59.859Z,19.79
2023-05-09T09:22:59.778Z,19.79
2023-05-09T09:23:59.810Z,19.82
2023-05-09T09:24:59.738Z,19.82
2023-05-09T09:26:00.274Z,19.82
2023-05-09T09:26:59.726Z,19.85
2023-05-09T09:27:59.745Z,19.86
2023-05-09T09:28:59.735Z,19.84
2023-05-09T09:30:27.650Z,19.85
2023-05-09T09:30:59.725Z,19.86
2023-05-09T09:31:59.776Z,19.86
2023-05-09T09:32:59.724Z,19.88
2023-05-09T09:33:59.673Z,19.86
2023-05-09T09:34:59.691Z,19.85
2023-05-09T09:35:59.683Z,19.88
2023-05-09T09:36:59.642Z,19.88
2023-05-09T09:38:00.214Z,19.89
2023-05-09T09:38:59.604Z,19.91
2023-05-09T09:39:59.578Z,19.94
2023-05-09T09:40:59.615Z,19.99
2023-05-09T09:41:59.584Z,19.99
2023-05-09T09:42:59.573Z,19.99
2023-05-09T09:43:59.570Z,19.96
2023-05-09T09:44:59.529Z,19.94
2023-05-09T09:45:59.570Z,19.94
2023-05-09T09:46:59.560Z,19.92
2023-05-09T09:47:59.532Z,19.92
2023-05-09T09:48:59.564Z,19.91
2023-05-09T09:49:59.509Z,19.88
2023-05-09T09:50:59.488Z,19.86
2023-05-09T09:51:59.493Z,19.86
2023-05-09T09:52:59.454Z,19.82
2023-05-09T09:53:59.447Z,19.79
2023-05-09T09:54:59.434Z,19.77
2023-05-09T09:55:59.432Z,19.77
2023-05-09T09:56:59.418Z,19.77
2023-05-09T09:57:59.369Z,19.77
2023-05-09T09:58:59.405Z,19.79
2023-05-09T09:59:59.372Z,19.81
2023-05-09T10:00:59.519Z,19.82
2023-05-09T10:01:59.379Z,19.82
2023-05-09T10:02:59.500Z,19.85
2023-05-09T10:03:59.376Z,19.88
2023-05-09T10:04:59.423Z,19.86
2023-05-09T10:05:59.296Z,19.88
2023-05-09T10:06:59.587Z,19.88
2023-05-09T10:07:59.396Z,19.88
2023-05-09T10:08:59.317Z,19.91
2023-05-09T10:09:59.257Z,19.92
2023-05-09T10:10:59.272Z,19.91
2023-05-09T10:11:59.281Z,19.94
2023-05-09T10:12:59.343Z,19.92
2023-05-09T10:13:59.267Z,19.92
2023-05-09T10:15:00.200Z,19.92
2023-05-09T10:15:59.399Z,19.94
2023-05-09T10:16:59.332Z,19.94
2023-05-09T10:17:59.327Z,19.99
2023-05-09T10:18:59.218Z,20.02
2023-05-09T10:19:59.165Z,20.04
2023-05-09T10:20:59.168Z,20.07
2023-05-09T10:21:59.160Z,20.11
2023-05-09T10:22:59.223Z,20.13
2023-05-09T10:23:59.133Z,20.14
2023-05-09T10:24:59.131Z,20.19
2023-05-09T10:25:59.114Z,20.21
2023-05-09T10:26:59.113Z,20.22
2023-05-09T10:27:59.064Z,20.25
2023-05-09T10:28:59.084Z,20.25
2023-05-09T10:29:59.086Z,20.28
2023-05-09T10:30:59.078Z,20.28
2023-05-09T10:31:59.645Z,20.29
2023-05-09T10:32:59.020Z,20.29
2023-05-09T10:33:59.017Z,20.29
2023-05-09T10:34:59.046Z,20.32
2023-05-09T10:35:58.989Z,20.29
2023-05-09T10:36:58.972Z,20.32
2023-05-09T10:37:58.977Z,20.31
2023-05-09T10:38:58.970Z,20.34
2023-05-09T10:39:58.937Z,20.36
2023-05-09T10:40:58.945Z,20.40
2023-05-09T10:41:58.923Z,20.41
2023-05-09T10:42:58.944Z,20.44
2023-05-09T10:43:58.889Z,20.44
2023-05-09T10:44:58.945Z,20.48
2023-05-09T10:45:58.852Z,20.51
2023-05-09T10:46:58.962Z,20.51
2023-05-09T10:47:58.899Z,20.51
2023-05-09T10:48:58.863Z,20.52
2023-05-09T10:49:58.884Z,20.56
2023-05-09T10:50:58.866Z,20.60
2023-05-09T10:51:58.793Z,20.62
2023-05-09T10:52:58.786Z,20.66
2023-05-09T10:53:58.825Z,20.69
2023-05-09T10:54:58.796Z,20.74
2023-05-09T10:55:58.791Z,20.81
2023-05-09T10:56:58.750Z,20.84
2023-05-09T10:57:58.734Z,20.88
2023-05-09T10:58:58.785Z,20.93
2023-05-09T10:59:58.736Z,20.95
2023-05-09T11:00:58.750Z,20.99
2023-05-09T11:01:58.790Z,21.05
2023-05-09T11:02:58.801Z,21.12
2023-05-09T11:03:58.741Z,21.15
2023-05-09T11:04:58.723Z,21.21
2023-05-09T11:05:58.767Z,21.25
2023-05-09T11:06:58.686Z,21.29
2023-05-09T11:07:58.656Z,21.33
2023-05-09T11:08:58.671Z,21.35
2023-05-09T11:09:58.661Z,21.36
2023-05-09T11:10:58.644Z,21.36
2023-05-09T11:11:58.597Z,21.37
2023-05-09T11:12:58.733Z,21.42
2023-05-09T11:13:58.648Z,21.43
2023-05-09T11:14:58.566Z,21.50
2023-05-09T11:15:58.603Z,21.52
2023-05-09T11:16:58.848Z,21.57
2023-05-09T11:17:58.537Z,21.61
2023-05-09T11:18:58.522Z,21.66
2023-05-09T11:19:58.526Z,21.70
2023-05-09T11:20:58.578Z,21.73
2023-05-09T11:21:58.477Z,21.79
2023-05-09T11:22:58.505Z,21.83
2023-05-09T11:23:58.545Z,21.89
2023-05-09T11:24:58.442Z,21.95
2023-05-09T11:25:58.495Z,21.99
2023-05-09T11:26:58.788Z,22.04
2023-05-09T11:27:58.436Z,22.07
2023-05-09T11:28:58.434Z,22.10
2023-05-09T11:29:58.398Z,22.13
2023-05-09T11:30:58.446Z,22.14
2023-05-09T11:31:58.426Z,22.17
2023-05-09T11:32:58.523Z,22.17
2023-05-09T11:33:58.337Z,22.20
2023-05-09T11:34:58.351Z,22.18
2023-05-09T11:35:58.341Z,22.18
2023-05-09T11:36:58.391Z,22.18
2023-05-09T11:37:58.316Z,22.15
2023-05-09T11:38:58.350Z,22.14
2023-05-09T11:39:58.300Z,22.15
2023-05-09T11:40:58.297Z,22.14
2023-05-09T11:41:58.274Z,22.10
2023-05-09T11:42:58.975Z,22.10
2023-05-09T11:43:58.281Z,22.06
2023-05-09T11:44:58.253Z,22.02
2023-05-09T11:45:58.270Z,22.00
2023-05-09T11:46:58.249Z,22.00
2023-05-09T11:47:58.264Z,21.95
2023-05-09T11:48:58.259Z,21.88
2023-05-09T11:49:58.198Z,21.82
2023-05-09T11:50:58.255Z,21.77
2023-05-09T11:51:58.137Z,21.72
2023-05-09T11:52:58.209Z,21.72
2023-05-09T11:53:58.142Z,21.67
2023-05-09T11:54:58.173Z,21.64
2023-05-09T11:55:58.121Z,21.62
2023-05-09T11:56:58.102Z,21.61
2023-05-09T11:57:58.115Z,21.58
2023-05-09T11:58:58.082Z,21.55
2023-05-09T11:59:58.069Z,21.51
2023-05-09T12:00:58.111Z,21.51
2023-05-09T12:01:58.129Z,21.50
2023-05-09T12:02:58.118Z,21.46
2023-05-09T12:03:58.115Z,21.43
2023-05-09T12:04:58.035Z,21.43
2023-05-09T12:05:58.003Z,21.43
2023-05-09T12:06:58.050Z,21.40
2023-05-09T12:07:57.990Z,21.42
2023-05-09T12:08:58.000Z,21.43
2023-05-09T12:09:57.959Z,21.45
2023-05-09T12:10:57.963Z,21.46
2023-05-09T12:11:57.955Z,21.48
2023-05-09T12:12:57.976Z,21.51
2023-05-09T12:13:57.959Z,21.50
2023-05-09T12:14:58.397Z,21.50
2023-05-09T12:15:57.931Z,21.51
2023-05-09T12:16:57.892Z,21.52
2023-05-09T12:17:57.906Z,21.51
2023-05-09T12:18:57.906Z,21.48
2023-05-09T12:19:57.859Z,21.45
2023-05-09T12:20:57.836Z,21.43
2023-05-09T12:21:57.811Z,21.37
2023-05-09T12:22:57.808Z,21.36
2023-05-09T12:23:57.838Z,21.35
2023-05-09T12:24:57.849Z,21.36
2023-05-09T12:25:57.825Z,21.35
2023-05-09T12:26:57.777Z,21.35
2023-05-09T12:27:57.781Z,21.33
2023-05-09T12:28:57.779Z,21.35
2023-05-09T12:29:57.749Z,21.32
2023-05-09T12:30:57.807Z,21.29
2023-05-09T12:31:57.775Z,21.24
2023-05-09T12:32:57.744Z,21.20
2023-05-09T12:33:57.700Z,21.18
2023-05-09T12:34:57.696Z,21.12
2023-05-09T12:35:57.675Z,21.06
2023-05-09T12:36:57.685Z,20.97
2023-05-09T12:37:57.694Z,20.87
2023-05-09T12:38:57.628Z,20.80
2023-05-09T12:39:57.634Z,20.67
2023-05-09T12:40:57.623Z,20.50
2023-05-09T12:42:01.866Z,20.37
2023-05-09T12:42:57.612Z,20.29
2023-05-09T12:43:57.580Z,20.21
2023-05-09T12:44:57.583Z,20.19
2023-05-09T12:45:57.650Z,20.14
2023-05-09T12:46:57.635Z,20.11
2023-05-09T12:47:57.596Z,20.13
2023-05-09T12:48:57.557Z,20.13
2023-05-09T12:49:57.541Z,20.09
2023-05-09T12:50:57.517Z,20.04
2023-05-09T12:51:57.525Z,20.03
2023-05-09T12:53:03.096Z,20.02
2023-05-09T12:53:57.506Z,19.96
2023-05-09T12:54:57.478Z,19.92
2023-05-09T12:55:57.509Z,19.92
2023-05-09T12:56:57.436Z,19.91
2023-05-09T12:57:57.470Z,19.89
2023-05-09T12:58:57.408Z,19.88
2023-05-09T12:59:57.449Z,19.88
2023-05-09T13:00:57.467Z,19.86
2023-05-09T13:01:57.421Z,19.82
2023-05-09T13:02:57.484Z,19.77
2023-05-09T13:03:57.444Z,19.71
2023-05-09T13:04:57.341Z,19.69
2023-05-09T13:05:57.402Z,19.67
2023-05-09T13:06:57.356Z,19.64
2023-05-09T13:07:57.355Z,19.67
2023-05-09T13:08:57.341Z,19.69
2023-05-09T13:09:57.297Z,19.70
2023-05-09T13:11:07.785Z,19.73
2023-05-09T13:11:57.316Z,19.73
2023-05-09T13:12:57.324Z,19.76
2023-05-09T13:13:57.325Z,19.81
2023-05-09T13:14:57.305Z,19.79
2023-05-09T13:15:57.238Z,19.79
2023-05-09T13:16:57.313Z,19.79
2023-05-09T13:17:57.265Z,19.79
2023-05-09T13:18:57.238Z,19.81
2023-05-09T13:19:57.294Z,19.82
2023-05-09T13:20:57.205Z,19.84
2023-05-09T13:21:57.165Z,19.79
2023-05-09T13:22:57.188Z,19.81
2023-05-09T13:23:57.188Z,19.82
2023-05-09T13:24:57.139Z,19.85
2023-05-09T13:25:57.178Z,19.86
2023-05-09T13:26:57.110Z,19.92
2023-05-09T13:27:57.133Z,19.96
2023-05-09T13:28:57.094Z,19.96
2023-05-09T13:29:57.101Z,20.00
2023-05-09T13:30:57.124Z,20.06
2023-05-09T13:31:57.085Z,20.07
2023-05-09T13:32:57.413Z,20.06
2023-05-09T13:33:57.083Z,20.06
2023-05-09T13:34:57.077Z,20.09
2023-05-09T13:35:57.043Z,20.09
2023-05-09T13:36:57.010Z,20.10
2023-05-09T13:37:56.999Z,20.13
2023-05-09T13:38:56.991Z,20.14
2023-05-09T13:39:57.024Z,20.16
2023-05-09T13:40:56.955Z,20.19
2023-05-09T13:41:56.949Z,20.18
2023-05-09T13:42:56.948Z,20.16
2023-05-09T13:43:56.972Z,20.14
2023-05-09T13:44:56.965Z,20.16
2023-05-09T13:45:57.053Z,20.21
2023-05-09T13:46:56.901Z,20.26
2023-05-09T13:47:56.909Z,20.32
2023-05-09T13:48:56.922Z,20.37
2023-05-09T13:49:56.889Z,20.39
2023-05-09T13:50:56.894Z,20.40
2023-05-09T13:51:56.862Z,20.40
2023-05-09T13:52:56.858Z,20.40
2023-05-09T13:53:56.834Z,20.41
2023-05-09T13:54:56.801Z,20.43
2023-05-09T13:55:56.826Z,20.44
2023-05-09T13:56:56.821Z,20.47
2023-05-09T13:57:56.809Z,20.50
2023-05-09T13:58:56.801Z,20.47
2023-05-09T13:59:56.769Z,20.44
2023-05-09T14:00:56.782Z,20.40
2023-05-09T14:01:56.809Z,20.39
2023-05-09T14:02:56.792Z,20.34
2023-05-09T14:03:56.793Z,20.31
2023-05-09T14:04:56.700Z,20.28
2023-05-09T14:05:56.750Z,20.25
2023-05-09T14:06:56.699Z,20.21
2023-05-09T14:07:56.718Z,20.18
2023-05-09T14:08:56.713Z,20.14
2023-05-09T14:10:16.463Z,20.13
2023-05-09T14:10:56.665Z,20.11
2023-05-09T14:11:56.685Z,20.09
2023-05-09T14:12:56.676Z,20.09
2023-05-09T14:13:56.641Z,20.06
2023-05-09T14:14:56.599Z,20.06
2023-05-09T14:15:56.691Z,20.03
2023-05-09T14:16:56.567Z,20.06
2023-05-09T14:17:56.664Z,20.06
2023-05-09T14:18:56.533Z,20.07
2023-05-09T14:19:56.594Z,20.07
2023-05-09T14:20:56.537Z,20.09
2023-05-09T14:21:56.527Z,20.10
2023-05-09T14:22:56.537Z,20.11
2023-05-09T14:23:56.521Z,20.13
2023-05-09T14:24:56.503Z,20.16
2023-05-09T14:25:56.527Z,20.13
2023-05-09T14:26:56.471Z,20.14
2023-05-09T14:27:56.503Z,20.14
2023-05-09T14:28:56.472Z,20.11
2023-05-09T14:29:56.450Z,20.13
2023-05-09T14:30:56.463Z,20.14
2023-05-09T14:31:56.678Z,20.13
2023-05-09T14:32:56.395Z,20.14
2023-05-09T14:33:56.407Z,20.10
2023-05-09T14:34:56.414Z,20.11
2023-05-09T14:35:56.363Z,20.11
2023-05-09T14:36:56.384Z,20.10
2023-05-09T14:37:56.371Z,20.10
2023-05-09T14:38:56.360Z,20.11
2023-05-09T14:39:56.410Z,20.11
2023-05-09T14:40:56.323Z,20.11
2023-05-09T14:41:56.356Z,20.10
2023-05-09T14:42:56.323Z,20.06
2023-05-09T14:43:56.324Z,20.04
2023-05-09T14:44:56.448Z,20.06
2023-05-09T14:45:56.280Z,20.03
2023-05-09T14:46:56.291Z,20.00
2023-05-09T14:47:56.325Z,19.99
2023-05-09T14:48:56.239Z,19.92
2023-05-09T14:49:56.284Z,19.91
2023-05-09T14:50:56.224Z,19.85
2023-05-09T14:51:56.222Z,19.82
2023-05-09T14:52:56.238Z,19.77
2023-05-09T14:53:56.191Z,19.71
2023-05-09T14:54:56.146Z,19.67
2023-05-09T14:55:56.168Z,19.63
2023-05-09T14:56:56.130Z,19.59
2023-05-09T14:57:56.150Z,19.55
2023-05-09T14:58:56.295Z,19.51
2023-05-09T14:59:58.831Z,19.48
2023-05-09T15:00:56.097Z,19.45
2023-05-09T15:01:56.080Z,19.44
2023-05-09T15:02:56.167Z,19.36
2023-05-09T15:03:56.138Z,19.30
2023-05-09T15:04:56.057Z,19.29
2023-05-09T15:05:56.046Z,19.27
2023-05-09T15:06:56.028Z,19.24
2023-05-09T15:07:56.044Z,19.24
2023-05-09T15:08:56.014Z,19.24
2023-05-09T15:09:56.058Z,19.26
2023-05-09T15:10:55.982Z,19.27
2023-05-09T15:11:55.997Z,19.27
2023-05-09T15:12:55.990Z,19.27
2023-05-09T15:13:55.975Z,19.30
2023-05-09T15:14:55.960Z,19.31
2023-05-09T15:15:55.959Z,19.30
2023-05-09T15:16:55.926Z,19.29
2023-05-09T15:17:55.958Z,19.27
2023-05-09T15:18:55.910Z,19.27
2023-05-09T15:19:55.910Z,19.22
2023-05-09T15:20:55.885Z,19.21
2023-05-09T15:21:55.899Z,19.18
2023-05-09T15:22:55.922Z,19.16
2023-05-09T15:23:55.864Z,19.18
2023-05-09T15:24:55.818Z,19.19
2023-05-09T15:25:55.847Z,19.21
2023-05-09T15:26:55.824Z,19.22
2023-05-09T15:27:55.850Z,19.27
2023-05-09T15:28:55.795Z,19.26
2023-05-09T15:29:55.779Z,19.19
2023-05-09T15:30:55.760Z,19.14
2023-05-09T15:31:55.781Z,19.08
2023-05-09T15:32:55.839Z,19.02
2023-05-09T15:33:55.738Z,18.99
2023-05-09T15:34:55.702Z,18.96
2023-05-09T15:35:55.722Z,18.95
2023-05-09T15:36:55.686Z,18.93
2023-05-09T15:37:55.695Z,18.92
2023-05-09T15:38:55.694Z,18.90
2023-05-09T15:39:55.728Z,18.90
2023-05-09T15:40:55.660Z,18.90
2023-05-09T15:41:55.655Z,18.92
2023-05-09T15:42:55.623Z,18.89
2023-05-09T15:43:55.663Z,18.89
2023-05-09T15:44:55.597Z,18.88
2023-05-09T15:45:55.746Z,18.86
2023-05-09T15:46:55.579Z,18.84
2023-05-09T15:47:55.672Z,18.84
2023-05-09T15:48:56.168Z,18.84
2023-05-09T15:49:55.585Z,18.83
2023-05-09T15:50:55.544Z,18.83
2023-05-09T15:51:55.549Z,18.81
2023-05-09T15:52:55.526Z,18.75
2023-05-09T15:53:55.562Z,18.73
2023-05-09T15:54:55.599Z,18.68
2023-05-09T15:55:55.499Z,18.62
2023-05-09T15:56:55.474Z,18.58
2023-05-09T15:57:55.479Z,18.53
2023-05-09T15:58:55.471Z,18.50
2023-05-09T15:59:55.596Z,18.49
2023-05-09T16:00:55.455Z,18.44
2023-05-09T16:01:55.531Z,18.44
2023-05-09T16:02:55.500Z,18.44
2023-05-09T16:03:55.527Z,18.43
2023-05-09T16:04:55.410Z,18.41
2023-05-09T16:05:55.386Z,18.40
2023-05-09T16:06:55.406Z,18.40
2023-05-09T16:07:55.388Z,18.37
2023-05-09T16:08:55.354Z,18.35
2023-05-09T16:09:55.374Z,18.34
2023-05-09T16:10:55.353Z,18.33
2023-05-09T16:11:55.358Z,18.31
2023-05-09T16:12:55.362Z,18.29
2023-05-09T16:13:55.383Z,18.28
2023-05-09T16:14:55.290Z,18.26
2023-05-09T16:15:55.332Z,18.26
2023-05-09T16:16:55.259Z,18.22
2023-05-09T16:17:55.302Z,18.22
2023-05-09T16:18:55.246Z,18.20
2023-05-09T16:19:55.261Z,18.19
2023-05-09T16:20:55.202Z,18.20
2023-05-09T16:21:55.230Z,18.20
2023-05-09T16:22:55.215Z,18.16
2023-05-09T16:23:55.253Z,18.16
2023-05-09T16:24:55.176Z,18.16
2023-05-09T16:25:55.194Z,18.15
2023-05-09T16:26:55.142Z,18.18
2023-05-09T16:27:55.150Z,18.18
2023-05-09T16:28:55.120Z,18.16
2023-05-09T16:29:55.163Z,18.20
2023-05-09T16:30:55.098Z,18.18
2023-05-09T16:31:55.144Z,18.16
2023-05-09T16:32:55.119Z,18.11
2023-05-09T16:33:55.115Z,18.11
2023-05-09T16:34:55.066Z,18.11
2023-05-09T16:35:55.093Z,18.08
2023-05-09T16:36:55.039Z,18.10
2023-05-09T16:37:55.043Z,18.08
2023-05-09T16:38:55.032Z,18.05
2023-05-09T16:39:55.035Z,18.04
2023-05-09T16:40:54.996Z,18.04
2023-05-09T16:41:55.018Z,18.04
2023-05-09T16:42:55.013Z,18.04
2023-05-09T16:43:54.959Z,18.01
2023-05-09T16:44:55.009Z,18.01
2023-05-09T16:45:54.974Z,18.00
2023-05-09T16:46:54.963Z,18.00
2023-05-09T16:47:55.003Z,17.98
2023-05-09T16:48:54.967Z,17.95
2023-05-09T16:49:54.903Z,17.89
2023-05-09T16:50:54.897Z,17.87
2023-05-09T16:51:54.917Z,17.83
2023-05-09T16:52:54.927Z,17.82
2023-05-09T16:53:54.848Z,17.82
2023-05-09T16:54:54.845Z,17.80
2023-05-09T16:55:54.823Z,17.79
2023-05-09T16:56:54.834Z,17.79
2023-05-09T16:57:54.822Z,17.76
2023-05-09T16:58:54.873Z,17.78
2023-05-09T16:59:54.793Z,17.76
2023-05-09T17:00:54.813Z,17.72
2023-05-09T17:01:54.762Z,17.72
2023-05-09T17:02:54.775Z,17.70
2023-05-09T17:03:54.751Z,17.70
2023-05-09T17:04:54.911Z,17.67
2023-05-09T17:05:54.712Z,17.68
2023-05-09T17:06:54.797Z,17.70
2023-05-09T17:07:54.705Z,17.71
2023-05-09T17:08:54.697Z,17.74
2023-05-09T17:09:54.732Z,17.74
2023-05-09T17:10:54.691Z,17.74
2023-05-09T17:11:54.661Z,17.72
2023-05-09T17:12:54.728Z,17.70
2023-05-09T17:13:54.674Z,17.68
2023-05-09T17:14:54.647Z,17.70
2023-05-09T17:15:54.625Z,17.68
2023-05-09T17:16:54.754Z,17.67
2023-05-09T17:17:54.694Z,17.67
2023-05-09T17:18:54.598Z,17.65
2023-05-09T17:19:54.564Z,17.57
2023-05-09T17:20:54.570Z,17.54
2023-05-09T17:21:54.543Z,17.48